createdAt,value
2018-04-23T00:00:38.909Z,69.21
2018-04-23T00:01:38.852Z,69.46
2018-04-23T00:02:38.794Z,69.56
2018-04-23T00:03:38.748Z,69.75
2018-04-23T00:04:38.678Z,69.95
2018-04-23T00:05:38.620Z,69.75
2018-04-23T00:06:38.559Z,70.04
2018-04-23T00:07:38.495Z,69.85
2018-04-23T00:08:38.438Z,69.79
2018-04-23T00:09:38.375Z,69.98
2018-04-23T00:10:38.320Z,69.79
2018-04-23T00:11:38.253Z,70.17
2018-04-23T00:12:38.202Z,70.17
2018-04-23T00:13:38.136Z,69.95
2018-04-23T00:14:38.080Z,69.79
2018-04-23T00:15:38.029Z,69.89
2018-04-23T00:16:37.968Z,69.89
2018-04-23T00:17:37.900Z,69.75
2018-04-23T00:18:37.843Z,69.95
2018-04-23T00:19:37.782Z,69.98
2018-04-23T00:20:37.722Z,70.17
2018-04-23T00:21:37.669Z,70.07
2018-04-23T00:22:37.610Z,70.17
2018-04-23T00:23:37.558Z,70.07
2018-04-23T00:24:37.483Z,70.17
2018-04-23T00:25:37.424Z,70.17
2018-04-23T00:26:37.370Z,69.98
2018-04-23T00:27:37.309Z,70.07
2018-04-23T00:28:37.248Z,70.07
2018-04-23T00:29:37.196Z,69.98
2018-04-23T00:30:37.128Z,70.17
2018-04-23T00:31:37.069Z,69.98
2018-04-23T00:32:37.007Z,69.79
2018-04-23T00:33:36.948Z,69.89
2018-04-23T00:34:36.893Z,69.79
2018-04-23T00:35:36.835Z,69.98
2018-04-23T00:36:36.768Z,69.69
2018-04-23T00:37:36.715Z,69.79
2018-04-23T00:38:36.658Z,70.17
2018-04-23T00:39:36.599Z,70.27
2018-04-23T00:40:36.537Z,70.27
2018-04-23T00:41:36.479Z,69.89
2018-04-23T00:42:36.417Z,69.98
2018-04-23T00:43:36.359Z,69.89
2018-04-23T00:44:36.296Z,70.27
2018-04-23T00:45:36.236Z,69.31
2018-04-23T00:46:36.182Z,70.17
2018-04-23T00:47:36.123Z,69.79
2018-04-23T00:48:36.060Z,70.23
2018-04-23T00:49:36.010Z,70.23
2018-04-23T00:50:35.941Z,70.72
2018-04-23T00:51:35.882Z,70.33
2018-04-23T00:52:35.825Z,70.33
2018-04-23T00:53:35.769Z,70.23
2018-04-23T00:54:35.702Z,70.37
2018-04-23T00:55:35.643Z,70.52
2018-04-23T00:56:35.592Z,69.98
2018-04-23T00:57:35.526Z,70.27
2018-04-23T00:58:35.477Z,70.27
2018-04-23T00:59:35.413Z,70.33
2018-04-23T01:00:35.357Z,70.46
2018-04-23T01:01:35.292Z,70.27
2018-04-23T01:02:35.226Z,70.46
2018-04-23T01:03:35.173Z,70.17
2018-04-23T01:04:35.114Z,70.65
2018-04-23T01:05:35.048Z,70.75
2018-04-23T01:06:35.000Z,70.27
2018-04-23T01:07:34.954Z,70.65
2018-04-23T01:08:34.885Z,70.72
2018-04-23T01:09:34.815Z,70.52
2018-04-23T01:10:34.756Z,70.62
2018-04-23T01:11:34.700Z,71.39
2018-04-23T01:12:34.646Z,71.67
2018-04-23T01:13:34.582Z,71.29
2018-04-23T01:14:34.522Z,71.19
2018-04-23T01:15:34.466Z,70.97
2018-04-23T01:16:34.394Z,72.12
2018-04-23T01:17:34.335Z,72.02
2018-04-23T01:18:34.280Z,71.83
2018-04-23T01:19:34.223Z,71.64
2018-04-23T01:20:34.168Z,71.55
2018-04-23T01:21:34.103Z,71.64
2018-04-23T01:22:34.045Z,71.73
2018-04-23T01:23:33.985Z,71.83
2018-04-23T01:24:33.925Z,71.83
2018-04-23T01:25:33.869Z,72.02
2018-04-23T01:26:33.798Z,72.41
2018-04-23T01:27:33.744Z,72.60
2018-04-23T01:28:33.687Z,72.79
2018-04-23T01:29:33.625Z,72.69
2018-04-23T01:30:33.565Z,72.60
2018-04-23T01:31:33.513Z,72.69
2018-04-23T01:32:33.447Z,72.50
2018-04-23T01:33:33.388Z,72.50
2018-04-23T01:34:33.324Z,72.41
2018-04-23T01:35:33.267Z,72.60
2018-04-23T01:36:33.205Z,72.69
2018-04-23T01:37:33.148Z,72.69
2018-04-23T01:38:33.089Z,72.99
2018-04-23T01:39:33.030Z,72.34
2018-04-23T01:40:32.968Z,72.31
2018-04-23T01:41:32.908Z,72.34
2018-04-23T01:42:32.854Z,72.89
2018-04-23T01:43:32.792Z,72.50
2018-04-23T01:44:32.733Z,72.69
2018-04-23T01:45:32.668Z,72.41
2018-04-23T01:46:32.615Z,72.69
2018-04-23T01:47:32.550Z,72.99
2018-04-23T01:48:32.491Z,73.18
2018-04-23T01:49:32.431Z,73.18
2018-04-23T01:50:32.372Z,73.46
2018-04-23T01:51:32.314Z,73.46
2018-04-23T01:52:32.252Z,73.46
2018-04-23T01:53:32.193Z,73.18
2018-04-23T01:54:32.132Z,73.37
2018-04-23T01:55:32.075Z,73.66
2018-04-23T01:56:32.017Z,73.27
2018-04-23T01:57:31.951Z,73.66
2018-04-23T01:58:31.893Z,73.37
2018-04-23T01:59:31.830Z,73.27
2018-04-23T02:00:31.770Z,73.75
2018-04-23T02:01:31.722Z,73.94
2018-04-23T02:02:31.654Z,73.75
2018-04-23T02:03:31.597Z,73.46
2018-04-23T02:04:31.569Z,73.85
2018-04-23T02:05:31.487Z,74.19
2018-04-23T02:06:31.414Z,73.81
2018-04-23T02:07:31.352Z,74.29
2018-04-23T02:08:31.293Z,73.72
2018-04-23T02:09:31.235Z,74.10
2018-04-23T02:10:31.176Z,74.10
2018-04-23T02:11:31.116Z,73.72
2018-04-23T02:12:31.053Z,73.91
2018-04-23T02:13:30.992Z,73.72
2018-04-23T02:14:30.936Z,74.10
2018-04-23T02:15:30.875Z,73.91
2018-04-23T02:16:30.816Z,73.91
2018-04-23T02:17:30.757Z,73.62
2018-04-23T02:18:30.695Z,73.91
2018-04-23T02:19:30.641Z,73.52
2018-04-23T02:20:30.572Z,73.43
2018-04-23T02:21:30.514Z,73.72
2018-04-23T02:22:30.459Z,73.72
2018-04-23T02:23:30.403Z,73.72
2018-04-23T02:24:30.336Z,73.72
2018-04-23T02:25:30.278Z,74.10
2018-04-23T02:26:30.213Z,74.48
2018-04-23T02:27:30.157Z,74.10
2018-04-23T02:28:30.092Z,74.19
2018-04-23T02:29:30.036Z,74.29
2018-04-23T02:30:29.976Z,74.19
2018-04-23T02:31:29.915Z,73.91
2018-04-23T02:32:29.856Z,74.19
2018-04-23T02:33:29.790Z,73.91
2018-04-23T02:34:29.742Z,74.29
2018-04-23T02:35:29.675Z,73.81
2018-04-23T02:36:29.613Z,74.77
2018-04-23T02:37:29.557Z,74.48
2018-04-23T02:38:29.495Z,74.39
2018-04-23T02:39:29.435Z,74.39
2018-04-23T02:40:29.369Z,74.39
2018-04-23T02:41:29.315Z,74.68
2018-04-23T02:42:29.259Z,74.58
2018-04-23T02:43:29.195Z,74.58
2018-04-23T02:44:29.141Z,74.19
2018-04-23T02:45:29.079Z,74.58
2018-04-23T02:46:29.014Z,74.44
2018-04-23T02:47:28.962Z,74.96
2018-04-23T02:48:28.898Z,74.93
2018-04-23T02:49:28.833Z,74.96
2018-04-23T02:50:28.772Z,75.25
2018-04-23T02:51:28.711Z,75.50
2018-04-23T02:52:28.652Z,75.82
2018-04-23T02:53:28.589Z,75.73
2018-04-23T02:54:28.528Z,75.73
2018-04-23T02:55:28.499Z,75.82
2018-04-23T02:56:28.413Z,75.70
2018-04-23T02:57:28.349Z,75.40
2018-04-23T02:58:28.291Z,75.89
2018-04-23T02:59:28.229Z,76.07
2018-04-23T03:00:28.177Z,76.27
2018-04-23T03:01:28.121Z,75.98
2018-04-23T03:02:28.047Z,75.89
2018-04-23T03:03:27.997Z,75.79
2018-04-23T03:04:27.924Z,75.98
2018-04-23T03:05:27.866Z,75.89
2018-04-23T03:06:27.806Z,75.79
2018-04-23T03:07:27.748Z,75.79
2018-04-23T03:08:27.687Z,75.89
2018-04-23T03:09:27.627Z,75.79
2018-04-23T03:10:27.565Z,75.89
2018-04-23T03:11:27.500Z,76.27
2018-04-23T03:12:27.443Z,75.70
2018-04-23T03:13:27.381Z,75.70
2018-04-23T03:14:27.324Z,75.70
2018-04-23T03:15:27.266Z,75.98
2018-04-23T03:16:27.203Z,75.98
2018-04-23T03:17:27.142Z,75.89
2018-04-23T03:18:27.084Z,75.98
2018-04-23T03:19:27.028Z,76.14
2018-04-23T03:20:26.960Z,76.37
2018-04-23T03:21:26.902Z,76.27
2018-04-23T03:22:26.843Z,76.37
2018-04-23T03:23:26.776Z,75.70
2018-04-23T03:24:26.716Z,75.70
2018-04-23T03:25:26.655Z,75.79
2018-04-23T03:26:26.605Z,75.98
2018-04-23T03:27:26.539Z,75.79
2018-04-23T03:28:26.471Z,75.89
2018-04-23T03:29:26.412Z,76.37
2018-04-23T03:30:26.360Z,76.32
2018-04-23T03:31:26.293Z,75.95
2018-04-23T03:32:26.242Z,75.95
2018-04-23T03:33:26.178Z,76.32
2018-04-23T03:34:26.109Z,76.32
2018-04-23T03:35:26.064Z,76.42
2018-04-23T03:36:25.990Z,76.62
2018-04-23T03:37:25.927Z,76.65
2018-04-23T03:38:25.875Z,76.81
2018-04-23T03:39:25.809Z,76.42
2018-04-23T03:40:25.750Z,76.37
2018-04-23T03:41:25.690Z,77.00
2018-04-23T03:42:25.632Z,77.29
2018-04-23T03:43:25.566Z,77.19
2018-04-23T03:44:25.538Z,77.19
2018-04-23T03:45:25.441Z,77.48
2018-04-23T03:46:25.383Z,77.58
2018-04-23T03:47:25.321Z,77.29
2018-04-23T03:48:25.258Z,77.58
2018-04-23T03:49:25.198Z,77.67
2018-04-23T03:50:25.142Z,77.38
2018-04-23T03:51:25.082Z,77.48
2018-04-23T03:52:25.022Z,77.19
2018-04-23T03:53:24.959Z,77.86
2018-04-23T03:54:24.903Z,77.86
2018-04-23T03:55:24.833Z,77.86
2018-04-23T03:56:24.781Z,77.67
2018-04-23T03:57:24.708Z,77.86
2018-04-23T03:58:24.652Z,77.95
2018-04-23T03:59:24.592Z,77.76
2018-04-23T04:00:24.537Z,77.86
2018-04-23T04:01:24.472Z,77.63
2018-04-23T04:02:24.421Z,78.11
2018-04-23T04:03:24.369Z,78.02
2018-04-23T04:04:24.294Z,77.92
2018-04-23T04:05:24.230Z,77.73
2018-04-23T04:06:24.169Z,77.73
2018-04-23T04:07:24.108Z,77.73
2018-04-23T04:08:24.041Z,77.63
2018-04-23T04:09:24.008Z,77.82
2018-04-23T04:10:23.926Z,77.82
2018-04-23T04:11:23.866Z,78.49
2018-04-23T04:12:23.808Z,78.11
2018-04-23T04:13:23.742Z,78.69
2018-04-23T04:14:23.674Z,78.69
2018-04-23T04:15:23.627Z,78.88
2018-04-23T04:16:23.557Z,78.78
2018-04-23T04:17:23.493Z,78.40
2018-04-23T04:18:23.440Z,78.59
2018-04-23T04:19:23.376Z,78.69
2018-04-23T04:20:23.311Z,78.49
2018-04-23T04:21:23.274Z,78.40
2018-04-23T04:22:23.195Z,78.78
2018-04-23T04:23:23.141Z,78.40
2018-04-23T04:24:23.082Z,78.40
2018-04-23T04:25:23.008Z,78.40
2018-04-23T04:26:22.943Z,78.49
2018-04-23T04:27:22.893Z,78.40
2018-04-23T04:28:22.826Z,78.20
2018-04-23T04:29:22.766Z,78.40
2018-04-23T04:30:22.707Z,78.20
2018-04-23T04:31:22.647Z,78.49
2018-04-23T04:32:22.600Z,78.20
2018-04-23T04:33:22.522Z,78.40
2018-04-23T04:34:22.460Z,78.40
2018-04-23T04:35:22.401Z,78.49
2018-04-23T04:36:22.342Z,78.40
2018-04-23T04:37:22.279Z,78.59
2018-04-23T04:38:22.216Z,78.30
2018-04-23T04:39:22.159Z,78.49
2018-04-23T04:40:22.120Z,78.30
2018-04-23T04:41:22.035Z,78.88
2018-04-23T04:42:21.974Z,79.16
2018-04-23T04:43:21.931Z,78.88
2018-04-23T04:44:21.851Z,79.21
2018-04-23T04:45:21.791Z,78.44
2018-04-23T04:46:21.735Z,78.44
2018-04-23T04:47:21.664Z,78.92
2018-04-23T04:48:21.608Z,78.15
2018-04-23T04:49:21.543Z,78.63
2018-04-23T04:50:21.487Z,78.92
2018-04-23T04:51:21.439Z,78.72
2018-04-23T04:52:21.361Z,78.44
2018-04-23T04:53:21.301Z,78.44
2018-04-23T04:54:21.245Z,78.44
2018-04-23T04:55:21.197Z,78.44
2018-04-23T04:56:21.124Z,78.77
2018-04-23T04:57:21.066Z,77.90
2018-04-23T04:58:21.000Z,77.90
2018-04-23T04:59:20.939Z,78.00
2018-04-23T05:00:20.876Z,77.90
2018-04-23T05:01:20.858Z,77.80
2018-04-23T05:02:20.762Z,78.00
2018-04-23T05:03:20.696Z,77.80
2018-04-23T05:04:20.634Z,77.75
2018-04-23T05:05:20.576Z,77.46
2018-04-23T05:06:20.511Z,77.46
2018-04-23T05:07:20.463Z,77.46
2018-04-23T05:08:20.401Z,77.46
2018-04-23T05:09:20.333Z,77.23
2018-04-23T05:10:20.285Z,77.56
2018-04-23T05:11:20.205Z,77.08
2018-04-23T05:12:20.152Z,76.98
2018-04-23T05:13:20.100Z,76.69
2018-04-23T05:14:20.029Z,76.31
2018-04-23T05:15:19.970Z,76.88
2018-04-23T05:16:19.907Z,76.88
2018-04-23T05:17:19.849Z,76.40
2018-04-23T05:18:19.797Z,76.59
2018-04-23T05:19:19.747Z,76.59
2018-04-23T05:20:19.662Z,76.79
2018-04-23T05:21:19.615Z,76.79
2018-04-23T05:22:19.555Z,76.79
2018-04-23T05:23:19.493Z,76.98
2018-04-23T05:24:19.428Z,76.69
2018-04-23T05:25:19.377Z,76.50
2018-04-23T05:26:19.304Z,76.40
2018-04-23T05:27:19.244Z,76.69
2018-04-23T05:28:19.183Z,76.02
2018-04-23T05:29:19.124Z,76.25
2018-04-23T05:30:19.088Z,76.02
2018-04-23T05:31:18.997Z,76.02
2018-04-23T05:32:18.952Z,76.25
2018-04-23T05:33:18.887Z,75.77
2018-04-23T05:34:18.821Z,76.15
2018-04-23T05:35:18.762Z,76.15
2018-04-23T05:36:18.713Z,75.96
2018-04-23T05:37:18.647Z,76.15
2018-04-23T05:38:18.587Z,75.96
2018-04-23T05:39:18.521Z,75.77
2018-04-23T05:40:18.463Z,76.25
2018-04-23T05:41:18.403Z,76.34
2018-04-23T05:42:18.339Z,76.25
2018-04-23T05:43:18.279Z,75.57
2018-04-23T05:44:18.226Z,75.67
2018-04-23T05:45:18.179Z,75.38
2018-04-23T05:46:18.101Z,75.67
2018-04-23T05:47:18.041Z,76.00
2018-04-23T05:48:17.984Z,75.42
2018-04-23T05:49:17.922Z,75.90
2018-04-23T05:50:17.865Z,75.13
2018-04-23T05:51:17.821Z,75.13
2018-04-23T05:52:17.742Z,75.42
2018-04-23T05:53:17.680Z,75.67
2018-04-23T05:54:17.626Z,75.90
2018-04-23T05:55:17.582Z,75.13
2018-04-23T05:56:25.158Z,75.32
2018-04-23T05:58:12.412Z,75.13
2018-04-23T05:59:11.697Z,75.00
2018-04-23T06:01:05.009Z,75.29
2018-04-23T06:02:04.922Z,75.20
2018-04-23T06:03:04.900Z,75.20
2018-04-23T06:04:04.814Z,75.29
2018-04-23T06:05:04.740Z,75.20
2018-04-23T06:06:04.685Z,75.00
2018-04-23T06:07:04.619Z,75.67
2018-04-23T06:08:04.562Z,75.77
2018-04-23T06:09:04.500Z,75.57
2018-04-23T06:10:04.440Z,75.87
2018-04-23T06:11:04.379Z,75.67
2018-04-23T06:12:04.348Z,75.10
2018-04-23T06:13:04.257Z,75.00
2018-04-23T06:14:04.199Z,75.20
2018-04-23T06:15:04.154Z,75.20
2018-04-23T06:16:04.079Z,75.10
2018-04-23T06:17:04.022Z,75.10
2018-04-23T06:18:03.966Z,75.00
2018-04-23T06:19:03.898Z,75.38
2018-04-23T06:20:03.842Z,75.38
2018-04-23T06:21:03.778Z,74.62
2018-04-23T06:22:03.729Z,74.43
2018-04-23T06:23:03.657Z,74.90
2018-04-23T06:24:03.602Z,74.81
2018-04-23T06:25:03.543Z,73.75
2018-04-23T06:26:03.474Z,73.85
2018-04-23T06:27:03.421Z,73.85
2018-04-23T06:28:03.358Z,73.94
2018-04-23T06:29:03.297Z,73.94
2018-04-23T06:30:03.243Z,73.66
2018-04-23T06:31:03.189Z,73.50
2018-04-23T06:32:03.117Z,73.31
2018-04-23T06:33:03.067Z,72.99
2018-04-23T06:34:03.005Z,72.60
2018-04-23T06:35:02.937Z,72.73
2018-04-23T06:36:02.880Z,72.73
2018-04-23T06:37:02.828Z,72.83
2018-04-23T06:38:02.785Z,72.73
2018-04-23T06:39:02.708Z,72.69
2018-04-23T06:40:02.642Z,72.79
2018-04-23T06:41:02.596Z,72.73
2018-04-23T06:42:02.518Z,72.73
2018-04-23T06:43:02.458Z,72.73
2018-04-23T06:44:02.399Z,72.44
2018-04-23T06:45:02.337Z,72.54
2018-04-23T06:46:02.283Z,72.92
2018-04-23T06:47:02.228Z,72.54
2018-04-23T06:48:02.168Z,72.06
2018-04-23T06:49:02.102Z,72.64
2018-04-23T06:50:02.043Z,72.16
2018-04-23T06:51:02.000Z,72.06
2018-04-23T06:52:01.928Z,72.25
2018-04-23T06:53:01.861Z,72.64
2018-04-23T06:54:01.805Z,72.25
2018-04-23T06:55:01.741Z,71.87
2018-04-23T06:56:01.687Z,71.81
2018-04-23T06:57:01.633Z,71.23
2018-04-23T06:58:01.566Z,71.14
2018-04-23T06:59:01.552Z,71.61
2018-04-23T07:00:01.451Z,71.14
2018-04-23T07:01:01.396Z,70.68
2018-04-23T07:02:01.335Z,70.40
2018-04-23T07:03:01.280Z,70.59
2018-04-23T07:04:01.223Z,70.68
2018-04-23T07:05:01.226Z,70.68
2018-04-23T07:06:01.091Z,70.56
2018-04-23T07:07:01.054Z,71.04
2018-04-23T07:08:00.979Z,71.91
2018-04-23T07:09:00.918Z,71.48
2018-04-23T07:10:00.861Z,72.06
2018-04-23T07:11:00.798Z,72.06
2018-04-23T07:12:00.733Z,72.06
2018-04-23T07:13:00.671Z,71.48
2018-04-23T07:14:00.619Z,71.39
2018-04-23T07:15:00.565Z,71.58
2018-04-23T07:16:00.494Z,71.19
2018-04-23T07:17:00.442Z,71.67
2018-04-23T07:18:00.441Z,71.39
2018-04-23T07:19:00.320Z,71.23
2018-04-23T07:20:00.263Z,70.46
2018-04-23T07:21:00.208Z,70.56
2018-04-23T07:22:00.140Z,70.37
2018-04-23T07:23:00.083Z,70.40
2018-04-23T07:24:00.024Z,70.11
2018-04-23T07:24:59.964Z,70.30
2018-04-23T07:25:59.905Z,70.40
2018-04-23T07:26:59.859Z,69.82
2018-04-23T07:27:59.786Z,70.01
2018-04-23T07:28:59.730Z,69.34
2018-04-23T07:29:59.668Z,69.53
2018-04-23T07:30:59.628Z,69.44
2018-04-23T07:31:59.551Z,69.63
2018-04-23T07:32:59.494Z,69.28
2018-04-23T07:33:59.434Z,69.09
2018-04-23T07:35:02.103Z,68.90
2018-04-23T07:35:59.319Z,68.32
2018-04-23T07:36:59.267Z,68.60
2018-04-23T07:37:59.199Z,68.22
2018-04-23T07:38:59.149Z,68.41
2018-04-23T07:39:59.083Z,68.22
2018-04-23T07:40:59.025Z,68.22
2018-04-23T07:41:58.966Z,68.51
2018-04-23T07:42:58.910Z,67.97
2018-04-23T07:43:58.846Z,67.29
2018-04-23T07:44:58.788Z,67.19
2018-04-23T07:45:58.733Z,67.29
2018-04-23T07:46:58.679Z,67.19
2018-04-23T07:47:58.615Z,66.52
2018-04-23T07:48:58.594Z,67.10
2018-04-23T07:49:58.497Z,66.68
2018-04-23T07:50:58.443Z,66.68
2018-04-23T07:51:58.383Z,66.88
2018-04-23T07:52:58.324Z,67.16
2018-04-23T07:53:58.268Z,67.10
2018-04-23T07:54:58.212Z,66.42
2018-04-23T07:55:58.149Z,66.52
2018-04-23T07:56:58.089Z,66.71
2018-04-23T07:57:58.035Z,66.24
2018-04-23T07:58:57.978Z,66.04
2018-04-23T07:59:57.965Z,65.85
2018-04-23T08:00:57.860Z,66.04
2018-04-23T08:01:57.810Z,65.66
2018-04-23T08:02:57.743Z,65.59
2018-04-23T08:03:57.718Z,65.50
2018-04-23T08:04:57.628Z,65.14
2018-04-23T08:05:57.573Z,64.28
2018-04-23T08:06:57.511Z,63.98
2018-04-23T08:07:57.453Z,64.28
2018-04-23T08:08:57.396Z,63.70
2018-04-23T08:09:57.333Z,63.89
2018-04-23T08:10:57.280Z,63.31
2018-04-23T08:11:57.227Z,63.44
2018-04-23T08:12:57.165Z,62.96
2018-04-23T08:13:57.105Z,62.57
2018-04-23T08:14:57.064Z,62.41
2018-04-23T08:15:56.989Z,62.02
2018-04-23T08:16:56.933Z,62.22
2018-04-23T08:17:56.881Z,61.35
2018-04-23T08:18:56.829Z,61.83
2018-04-23T08:19:56.760Z,61.54
2018-04-23T08:20:56.702Z,61.44
2018-04-23T08:21:56.651Z,61.44
2018-04-23T08:22:56.591Z,60.68
2018-04-23T08:23:56.575Z,61.06
2018-04-23T08:24:56.478Z,61.25
2018-04-23T08:25:56.436Z,60.86
2018-04-23T08:26:56.360Z,60.83
2018-04-23T08:27:56.329Z,61.13
2018-04-23T08:28:56.253Z,60.64
2018-04-23T08:29:56.185Z,60.96
2018-04-23T08:30:56.140Z,60.86
2018-04-23T08:31:56.103Z,60.38
2018-04-23T08:32:56.026Z,60.10
2018-04-23T08:33:55.964Z,59.74
2018-04-23T08:34:55.905Z,59.74
2018-04-23T08:35:55.848Z,59.25
2018-04-23T08:36:55.798Z,59.55
2018-04-23T08:37:55.741Z,59.55
2018-04-23T08:38:55.682Z,59.52
2018-04-23T08:39:55.646Z,59.52
2018-04-23T08:40:55.566Z,59.32
2018-04-23T08:41:55.524Z,59.52
2018-04-23T08:42:55.460Z,59.42
2018-04-23T08:43:55.403Z,59.87
2018-04-23T08:44:55.342Z,60.55
2018-04-23T08:45:55.283Z,62.45
2018-04-23T08:46:55.227Z,64.05
2018-04-23T08:47:55.171Z,65.56
2018-04-23T08:48:55.132Z,65.66
2018-04-23T08:49:55.056Z,67.10
2018-04-23T08:50:55.007Z,67.29
2018-04-23T08:51:54.942Z,67.68
2018-04-23T08:52:54.892Z,67.29
2018-04-23T08:53:54.823Z,67.71
2018-04-23T08:54:54.775Z,67.03
2018-04-23T08:55:54.765Z,66.85
2018-04-23T08:56:54.651Z,66.49
2018-04-23T08:57:54.597Z,66.20
2018-04-23T08:58:54.550Z,66.01
2018-04-23T08:59:54.493Z,66.11
2018-04-23T09:00:54.423Z,66.11
2018-04-23T09:01:54.362Z,65.78
2018-04-23T09:02:54.308Z,65.72
2018-04-23T09:03:54.253Z,65.91
2018-04-23T09:04:54.196Z,66.20
2018-04-23T09:05:54.135Z,65.63
2018-04-23T09:06:54.078Z,65.14
2018-04-23T09:07:54.040Z,65.66
2018-04-23T09:09:00.640Z,65.27
2018-04-23T09:13:27.752Z,66.17
2018-04-23T09:15:22.073Z,67.35
2018-04-23T09:16:21.973Z,68.13
2018-04-23T09:18:16.283Z,69.82
2018-04-23T09:19:16.182Z,70.68
2018-04-23T09:21:13.464Z,71.36
2018-04-23T09:22:13.366Z,71.55
2018-04-23T09:23:13.336Z,72.03
2018-04-23T09:24:13.282Z,71.94
2018-04-23T09:25:13.198Z,71.84
2018-04-23T09:26:13.146Z,71.75
2018-04-23T09:27:13.076Z,72.17
2018-04-23T09:28:13.032Z,71.97
2018-04-23T09:29:12.990Z,72.07
2018-04-23T09:30:12.904Z,72.74
2018-04-23T09:31:12.845Z,73.51
2018-04-23T09:32:12.788Z,73.47
2018-04-23T09:33:12.742Z,73.99
2018-04-23T09:34:12.670Z,74.63
2018-04-23T09:35:12.606Z,75.88
2018-04-23T09:36:12.555Z,76.26
2018-04-23T09:37:12.482Z,76.17
2018-04-23T09:38:12.461Z,76.52
2018-04-23T09:39:12.368Z,77.96
2018-04-23T09:40:12.313Z,79.21
2018-04-23T09:41:12.272Z,79.40
2018-04-23T09:42:12.189Z,79.60
2018-04-23T09:43:12.157Z,80.42
2018-04-23T09:44:12.088Z,80.42
2018-04-23T09:45:12.006Z,81.57
2018-04-23T09:46:11.960Z,81.86
2018-04-23T09:47:11.912Z,82.15
2018-04-23T09:48:11.851Z,82.82
2018-04-23T09:49:11.777Z,82.92
2018-04-23T09:50:11.791Z,83.40
2018-04-23T09:51:11.656Z,83.69
2018-04-23T09:52:11.618Z,83.49
2018-04-23T09:53:11.536Z,83.30
2018-04-23T09:54:11.474Z,83.69
2018-04-23T09:55:11.434Z,83.34
2018-04-23T09:56:11.352Z,83.63
2018-04-23T09:57:11.302Z,83.53
2018-04-23T09:58:11.248Z,83.83
2018-04-23T09:59:11.183Z,84.01
2018-04-23T10:00:11.119Z,83.83
2018-04-23T10:01:11.079Z,84.21
2018-04-23T10:02:10.999Z,84.11
2018-04-23T10:03:10.960Z,83.86
2018-04-23T10:04:10.880Z,83.86
2018-04-23T10:05:10.827Z,84.16
2018-04-23T10:06:10.796Z,84.25
2018-04-23T10:07:10.703Z,84.16
2018-04-23T10:08:10.643Z,84.16
2018-04-23T10:09:10.582Z,84.34
2018-04-23T10:10:10.526Z,84.06
2018-04-23T10:11:10.465Z,84.06
2018-04-23T10:12:10.450Z,84.34
2018-04-23T10:13:10.344Z,83.96
2018-04-23T10:14:10.288Z,83.77
2018-04-23T10:15:10.224Z,83.09
2018-04-23T10:16:10.170Z,82.90
2018-04-23T10:17:10.127Z,83.58
2018-04-23T10:18:10.067Z,83.39
2018-04-23T10:19:10.032Z,83.48
2018-04-23T10:20:11.575Z,83.48
2018-04-23T10:21:09.889Z,82.94
2018-04-23T10:22:09.824Z,82.46
2018-04-23T10:23:09.809Z,81.79
2018-04-23T10:24:09.727Z,82.08
2018-04-23T10:25:09.641Z,81.70
2018-04-23T10:26:09.597Z,82.08
2018-04-23T10:27:09.520Z,81.88
2018-04-23T10:28:09.471Z,81.50
2018-04-23T10:29:09.415Z,81.70
2018-04-23T10:30:09.346Z,81.12
2018-04-23T10:31:09.408Z,80.63
2018-04-23T10:32:11.080Z,80.19
2018-04-23T10:33:09.179Z,79.61
2018-04-23T10:34:09.119Z,79.23
2018-04-23T10:35:09.079Z,79.36
2018-04-23T10:36:08.994Z,78.50
2018-04-23T10:37:08.960Z,78.59
2018-04-23T10:38:08.894Z,78.21
2018-04-23T10:39:08.822Z,77.92
2018-04-23T10:40:08.805Z,77.83
2018-04-23T10:41:08.703Z,77.63
2018-04-23T10:42:08.650Z,76.96
2018-04-23T10:43:08.608Z,77.25
2018-04-23T10:44:08.532Z,76.76
2018-04-23T10:45:08.476Z,76.67
2018-04-23T10:46:08.415Z,76.57
2018-04-23T10:47:08.355Z,76.09
2018-04-23T10:48:08.298Z,75.80
2018-04-23T10:49:08.257Z,76.03
2018-04-23T10:50:08.183Z,74.68
2018-04-23T10:51:08.238Z,75.07
2018-04-23T10:52:08.087Z,74.36
2018-04-23T10:53:08.022Z,74.16
2018-04-23T10:54:07.951Z,73.68
2018-04-23T10:55:07.895Z,74.26
2018-04-23T10:56:07.841Z,74.07
2018-04-23T10:57:07.808Z,73.94
2018-04-23T10:58:07.769Z,73.65
2018-04-23T10:59:07.674Z,73.84
2018-04-23T11:00:07.611Z,74.41
2018-04-23T11:01:07.552Z,74.09
2018-04-23T11:02:07.512Z,73.99
2018-04-23T11:03:07.438Z,74.09
2018-04-23T11:04:07.408Z,73.74
2018-04-23T11:05:07.335Z,73.55
2018-04-23T11:06:07.262Z,73.55
2018-04-23T11:07:07.204Z,72.88
2018-04-23T11:08:07.146Z,72.59
2018-04-23T11:09:07.091Z,72.24
2018-04-23T11:10:07.060Z,71.85
2018-04-23T11:11:06.985Z,71.41
2018-04-23T11:12:06.922Z,70.64
2018-04-23T11:13:06.875Z,70.15
2018-04-23T11:14:06.814Z,69.87
2018-04-23T11:15:06.770Z,69.42
2018-04-23T11:16:06.742Z,69.13
2018-04-23T11:17:06.645Z,69.23
2018-04-23T11:18:06.605Z,68.99
2018-04-23T11:19:06.548Z,68.99
2018-04-23T11:20:06.493Z,69.19
2018-04-23T11:21:06.426Z,68.61
2018-04-23T11:22:06.378Z,68.61
2018-04-23T11:23:06.319Z,68.80
2018-04-23T11:24:06.268Z,67.94
2018-04-23T11:25:06.223Z,67.78
2018-04-23T11:26:06.163Z,67.94
2018-04-23T11:27:06.105Z,67.84
2018-04-23T11:28:06.072Z,67.74
2018-04-23T11:29:06.002Z,67.36
2018-04-23T11:30:05.969Z,67.26
2018-04-23T11:31:05.895Z,66.88
2018-04-23T11:32:05.861Z,67.26
2018-04-23T11:33:05.805Z,66.69
2018-04-23T11:34:05.744Z,66.43
2018-04-23T11:35:05.704Z,65.85
2018-04-23T11:36:05.632Z,65.95
2018-04-23T11:37:05.627Z,65.78
2018-04-23T11:38:05.533Z,65.40
2018-04-23T11:39:05.505Z,64.92
2018-04-23T11:40:05.432Z,65.20
2018-04-23T11:41:05.380Z,65.27
2018-04-23T11:42:05.345Z,65.01
2018-04-23T11:43:05.275Z,64.53
2018-04-23T11:44:07.109Z,64.18
2018-04-23T11:45:05.199Z,63.70
2018-04-23T11:46:05.129Z,63.31
2018-04-23T11:47:05.078Z,62.25
2018-04-23T11:48:05.022Z,62.54
2018-04-23T11:49:04.974Z,61.89
2018-04-23T11:50:04.945Z,61.70
2018-04-23T11:51:04.876Z,61.34
2018-04-23T11:52:04.833Z,61.54
2018-04-23T11:53:04.842Z,60.76
2018-04-23T11:54:04.730Z,60.96
2018-04-23T11:55:04.677Z,60.67
2018-04-23T11:56:04.636Z,60.18
2018-04-23T11:57:04.583Z,60.38
2018-04-23T11:58:04.535Z,60.09
2018-04-23T11:59:04.489Z,60.38
2018-04-23T12:00:04.459Z,59.99
2018-04-23T12:01:04.398Z,59.77
2018-04-23T12:02:04.358Z,60.16
2018-04-23T12:03:04.338Z,60.06
2018-04-23T12:04:04.270Z,59.60
2018-04-23T12:05:04.210Z,59.31
2018-04-23T12:06:04.148Z,58.64
2018-04-23T12:07:04.110Z,59.31
2018-04-23T12:08:04.057Z,58.76
2018-04-23T12:09:04.009Z,58.67
2018-04-23T12:10:03.967Z,58.09
2018-04-23T12:11:03.917Z,58.21
2018-04-23T12:12:03.869Z,57.28
2018-04-23T12:13:03.822Z,57.05
2018-04-23T12:14:03.775Z,57.79
2018-04-23T12:15:03.745Z,58.28
2018-04-23T12:16:03.703Z,58.09
2018-04-23T12:17:03.630Z,58.18
2018-04-23T12:18:03.577Z,57.79
2018-04-23T12:19:03.535Z,57.03
2018-04-23T12:20:03.482Z,56.83
2018-04-23T12:21:03.447Z,55.96
2018-04-23T12:22:03.386Z,56.09
2018-04-23T12:23:03.375Z,55.89
2018-04-23T12:24:03.296Z,55.73
2018-04-23T12:25:03.246Z,55.63
2018-04-23T12:26:03.194Z,55.89
2018-04-23T12:27:03.145Z,55.60
2018-04-23T12:28:03.121Z,55.77
2018-04-23T12:29:03.051Z,56.35
2018-04-23T12:30:03.006Z,56.54
2018-04-23T12:31:02.949Z,57.09
2018-04-23T12:32:02.898Z,56.61
2018-04-23T12:33:02.849Z,56.71
2018-04-23T12:34:02.802Z,56.93
2018-04-23T12:35:02.747Z,55.87
2018-04-23T12:36:02.704Z,55.41
2018-04-23T12:37:02.683Z,55.05
2018-04-23T12:38:02.596Z,54.95
2018-04-23T12:39:02.554Z,53.81
2018-04-23T12:40:02.498Z,54.01
2018-04-23T12:41:02.450Z,53.36
2018-04-23T12:42:02.404Z,53.17
2018-04-23T12:43:02.369Z,52.68
2018-04-23T12:44:02.311Z,52.90
2018-04-23T12:45:02.265Z,51.81
2018-04-23T12:46:02.267Z,51.62
2018-04-23T12:47:02.190Z,51.54
2018-04-23T12:48:02.113Z,51.06
2018-04-23T12:49:02.063Z,50.79
2018-04-23T12:50:02.018Z,50.31
2018-04-23T12:51:01.996Z,49.82
2018-04-23T12:52:01.916Z,49.27
2018-04-23T12:53:01.905Z,48.61
2018-04-23T12:54:01.829Z,47.93
2018-04-23T12:55:01.777Z,47.83
2018-04-23T12:56:01.732Z,47.72
2018-04-23T12:57:01.689Z,47.91
2018-04-23T12:58:01.657Z,47.25
2018-04-23T12:59:01.584Z,46.77
2018-04-23T13:00:01.544Z,45.92